Latest Weather Observations for Latrobe Valley

IDV60801

Issued at 10:02 pm EST Saturday 29 July 2017 (issued every 30 minutes, with the page automatically refreshed every 10 minutes)

About weather observations | Map of weather stations | Latest weather observations for VIC | Other Formats
Station Details ID: 085280 Name: LATROBE VALLEY AIRPORT Lat: -38.21 Lon: 146.47 Height: 55.7 m
Data from the previous 72 hours. | See also: Recent months at Latrobe Valley
Date/Time
EST
Temp
°C
App
Temp
°C
Dew
Point
°C
Rel
Hum
%
Delta-T
°C
Wind Press
QNH
hPa
Press
MSL
hPa
Rain since
9am
mm
Dir  Spd
km/h
Gust
km/h
Spd
kts
Gust
kts
29/10:00pm 18.7 9.7 2.5 34 7.5 NW 39 54 21 29 1004.8 1004.9 0.0
29/09:30pm 18.2 10.3 2.5 35 7.2 NW 33 57 18 31 1004.3 1004.4 0.0
29/09:00pm 18.7 10.0 2.1 33 7.6 NW 37 57 20 31 1004.7 1004.8 0.0
29/08:34pm 18.7 10.0 2.1 33 7.6 NW 37 56 20 30 1004.3 1004.4 0.0
29/08:30pm 18.9 9.9 2.3 33 7.6 NW 39 56 21 30 1004.1 1004.2 0.0
29/08:19pm 19.6 12.5 1.6 30 8.2 NNW 28 59 15 32 1004.4 1004.5 0.0
29/08:00pm 16.3 13.2 3.7 43 5.9 N 9 30 5 16 1004.9 1005.0 0.0
29/07:30pm 16.3 13.2 3.7 43 5.8 SE 9 13 5 7 1005.1 1005.2 0.0
29/07:00pm 17.4 13.7 2.2 36 6.9 NNE 11 20 6 11 1004.7 1004.8 0.0
29/06:30pm 16.5 14.2 2.5 39 6.3 NNW 4 7 2 4 1005.0 1005.1 0.0
29/06:00pm 17.7 14.3 1.7 34 7.2 W 9 19 5 10 1004.8 1004.9 0.0
29/05:30pm 18.0 11.8 1.9 34 7.3 NW 24 37 13 20 1005.1 1005.2 0.0
29/05:00pm 17.8 13.7 2.5 36 7.0 NW 13 32 7 17 1005.1 1005.2 0.0
29/04:30pm 18.1 14.0 4.3 40 6.6 NW 15 24 8 13 1005.4 1005.5 0.0
29/04:00pm 19.5 13.8 2.8 33 7.8 NNW 22 28 12 15 1004.9 1005.0 0.0
29/03:30pm 20.8 13.9 2.6 30 8.5 NW 28 41 15 22 1005.2 1005.3 0.0
29/03:00pm 21.3 15.1 4.4 33 8.3 WNW 26 39 14 21 1005.8 1005.9 0.0
29/02:30pm 21.8 17.5 3.0 29 9.0 WNW 15 28 8 15 1005.9 1006.0 0.0
29/02:00pm 21.5 16.6 4.1 32 8.5 NW 19 30 10 16 1006.1 1006.2 0.0
29/01:30pm 19.5 17.4 5.9 41 6.7 SSW 6 9 3 5 1006.7 1006.8 0.0
29/01:00pm 18.8 16.5 4.6 39 6.8 S 6 11 3 6 1007.4 1007.5 0.0
29/12:30pm 17.3 15.1 5.3 45 5.8 SE 6 9 3 5 1008.3 1008.4 0.0
29/12:00pm 14.5 12.8 3.9 49 4.9 ENE 2 7 1 4 1009.1 1009.2 0.0
29/11:30am 14.6 12.1 4.9 52 4.5 NW 7 13 4 7 1010.1 1010.2 0.0
29/11:00am 12.4 10.0 4.1 57 3.8 SSE 6 13 3 7 1010.9 1011.0 0.0
29/10:30am 9.3 7.0 5.7 78 1.6 NNE 7 11 4 6 1011.5 1011.6 0.0
29/10:00am 8.5 6.6 4.7 77 1.7 NNW 4 7 2 4 1011.8 1011.9 0.0
29/09:30am 8.0 6.2 5.3 83 1.2 NE 4 9 2 5 1012.3 1012.5 0.0
29/09:00am 6.1 4.7 5.4 95 0.3 SE 2 11 1 6 1012.3 1012.5 0.0
29/08:30am 4.0 0.8 3.3 95 0.3 NE 9 13 5 7 1012.5 1012.7 0.0
29/08:00am 3.0 0.0 2.3 95 0.3 NE 7 11 4 6 1013.4 1013.5 0.0
29/07:30am 2.1 -1.4 1.4 95 0.3 NE 9 11 5 6 1013.7 1013.8 0.0
29/07:00am 1.8 -1.7 1.1 95 0.3 NNE 9 11 5 6 1013.8 1013.9 0.0
29/06:30am 1.7 -1.5 1.0 95 0.3 NE 7 9 4 5 1013.9 1014.0 0.0
29/06:00am 2.2 -0.9 1.5 95 0.3 NE 7 9 4 5 1014.2 1014.3 0.0
29/05:30am 2.0 -1.5 1.1 94 0.3 NE 9 9 5 5 1014.5 1014.6 0.0
29/05:00am 2.9 -0.1 2.2 95 0.3 NE 7 7 4 4 1014.9 1015.0 0.0
29/04:48am 2.6 -0.8 1.9 95 0.3 NNE 9 9 5 5 1015.1 1015.2 0.0
29/04:30am 1.9 -1.6 1.0 94 0.3 NNE 9 11 5 6 1015.2 1015.3 0.0
29/04:08am 2.6 0.5 1.7 94 0.3 N 2 6 1 3 1015.5 1015.6 0.0
29/04:00am 2.7 0.2 1.8 94 0.3 NNE 4 6 2 3 1015.7 1015.8 0.0
29/03:30am 3.3 -0.4 2.4 94 0.4 NE 11 13 6 7 1015.4 1015.5 0.0
29/03:00am 3.1 0.1 2.2 94 0.4 ENE 7 9 4 5 1016.2 1016.3 0.0
29/02:46am 2.9 1.2 1.9 93 0.4 CALM 0 0 0 0 1016.6 1016.7 0.0
29/02:30am 2.8 0.7 1.8 93 0.4 NNW 2 6 1 3 1016.9 1017.0 0.0
29/02:12am 3.7 2.1 2.7 93 0.4 CALM 0 0 0 0 1016.9 1017.0 0.0
29/02:00am 3.3 1.3 2.3 93 0.4 ENE 2 6 1 3 1017.1 1017.2 0.0
29/01:30am 3.9 2.3 2.7 92 0.5 CALM 0 0 0 0 1017.4 1017.5 0.0
29/01:00am 4.8 3.0 3.6 92 0.5 E 2 6 1 3 1017.5 1017.6 0.0
29/12:30am 4.3 1.5 3.1 92 0.5 NE 7 7 4 4 1017.9 1018.0 0.0
29/12:00am 4.3 1.6 2.8 90 0.6 N 6 6 3 3 1018.1 1018.2 0.0
 
Date/Time
EST
Temp
°C
App
Temp
°C
Dew
Point
°C
Rel
Hum
%
Delta-T
°C
Wind Press
QNH
hPa
Press
MSL
hPa
Rain since
9am
mm
Dir  Spd
km/h
Gust
km/h
Spd
kts
Gust
kts
28/11:30pm 5.4 4.1 3.9 90 0.6 CALM 0 0 0 0 1018.5 1018.6 0.0
28/11:00pm 5.3 3.1 3.6 89 0.7 NE 4 7 2 4 1018.8 1018.9 0.0
28/10:30pm 6.2 3.6 4.0 86 0.9 SSE 7 9 4 5 1019.1 1019.2 0.0
28/10:00pm 6.4 5.1 3.9 84 1.1 CALM 0 0 0 0 1019.1 1019.2 0.0
28/09:30pm 6.3 3.8 3.6 83 1.1 NE 6 7 3 4 1019.2 1019.3 0.0
28/09:00pm 6.9 4.4 3.7 80 1.4 ENE 6 7 3 4 1019.4 1019.5 0.0
28/08:30pm 7.0 4.4 3.4 78 1.5 ENE 6 7 3 4 1019.7 1019.8 0.0
28/08:00pm 7.8 5.0 3.3 73 1.9 WSW 7 9 4 5 1019.2 1019.3 0.0
28/07:30pm 8.1 5.4 2.8 69 2.2 WSW 6 7 3 4 1019.4 1019.5 0.0
28/07:00pm 7.5 3.5 2.8 72 2.0 W 13 17 7 9 1019.3 1019.4 0.0
28/06:30pm 8.2 3.4 2.4 67 2.4 W 17 20 9 11 1019.2 1019.3 0.0
28/06:00pm 9.0 4.2 2.6 64 2.7 W 17 20 9 11 1018.9 1019.0 0.0
28/05:30pm 10.3 4.6 2.7 59 3.3 W 22 30 12 16 1018.6 1018.7 0.0
28/05:00pm 11.0 4.7 3.8 61 3.2 W 26 35 14 19 1018.9 1019.0 0.0
28/04:30pm 12.0 5.3 3.8 57 3.7 W 28 37 15 20 1018.7 1018.8 0.0
28/04:00pm 12.1 6.3 4.6 60 3.4 W 24 33 13 18 1018.4 1018.5 0.0
28/03:30pm 13.3 6.6 3.9 53 4.3 W 28 35 15 19 1018.0 1018.1 0.0
28/03:00pm 13.3 6.0 4.7 56 4.0 W 32 43 17 23 1017.6 1017.7 0.0
28/02:30pm 13.4 6.1 5.3 58 3.8 WNW 33 44 18 24 1017.5 1017.6 0.0
28/02:00pm 13.6 6.6 6.0 60 3.6 W 32 41 17 22 1017.5 1017.6 0.0
28/01:30pm 13.1 7.5 7.3 68 2.8 W 26 37 14 20 1017.6 1017.7 0.0
28/01:00pm 12.7 6.4 7.4 70 2.6 W 30 39 16 21 1017.6 1017.7 0.0
28/12:30pm 12.1 6.7 8.0 76 2.0 W 26 35 14 19 1017.7 1017.8 0.0
28/12:00pm 12.0 6.6 7.9 76 2.0 W 26 37 14 20 1017.8 1017.9 0.0
28/11:30am 11.2 4.6 7.7 79 1.7 WNW 32 44 17 24 1018.0 1018.1 0.0
28/11:00am 10.5 4.8 8.4 87 1.0 W 28 41 15 22 1018.1 1018.2 0.0
28/10:30am 10.9 4.3 7.6 80 1.6 W 32 41 17 22 1017.7 1017.8 0.0
28/10:00am 10.5 4.6 7.7 83 1.3 W 28 39 15 21 1017.4 1017.5 0.0
28/09:30am 9.7 3.4 7.3 85 1.1 W 30 41 16 22 1017.3 1017.4 0.0
28/09:00am 9.1 3.5 7.2 88 0.9 W 26 43 14 23 1016.8 1016.9 4.8
28/08:30am 8.6 3.0 7.1 90 0.7 WNW 26 37 14 20 1016.5 1016.6 4.8
28/08:00am 8.8 2.4 6.8 87 0.9 WNW 30 39 16 21 1016.2 1016.3 4.4
28/07:30am 8.8 3.1 6.6 86 1.0 W 26 37 14 20 1015.9 1016.0 4.4
28/07:00am 8.7 3.0 6.7 87 0.9 WNW 26 35 14 19 1015.1 1015.2 4.4
28/06:30am 8.7 3.8 6.7 87 0.9 W 22 33 12 18 1014.9 1015.0 4.4
28/06:00am 8.8 3.5 6.8 87 0.9 W 24 35 13 19 1014.5 1014.6 4.4
28/05:30am 8.9 3.6 7.0 88 0.9 W 24 30 13 16 1013.9 1014.0 4.4
28/05:00am 8.7 4.2 7.0 89 0.8 WNW 20 30 11 16 1013.5 1013.6 4.4
28/04:30am 8.4 3.8 6.7 89 0.8 WNW 20 26 11 14 1013.1 1013.3 4.4
28/04:00am 8.3 3.0 6.6 89 0.8 WNW 24 33 13 18 1012.9 1013.1 4.4
28/03:30am 8.5 4.0 6.8 89 0.8 WNW 20 28 11 15 1012.9 1013.1 4.4
28/03:00am 8.7 3.4 7.0 89 0.8 NW 24 30 13 16 1013.1 1013.3 4.2
28/02:30am 8.8 3.6 7.1 89 0.8 NW 24 35 13 19 1012.9 1013.1 4.0
28/02:00am 8.4 6.1 7.3 93 0.5 SW 9 15 5 8 1012.7 1012.9 3.2
28/01:30am 8.2 6.3 6.8 91 0.6 E 6 7 3 4 1012.3 1012.5 2.6
28/01:00am 8.8 6.9 7.4 91 0.7 SE 7 11 4 6 1012.3 1012.5 2.2
28/12:30am 8.4 6.0 7.2 92 0.6 SSE 9 11 5 6 1012.5 1012.7 2.2
28/12:00am 7.9 5.9 6.4 90 0.7 SSW 6 11 3 6 1013.1 1013.3 1.4
 
Date/Time
EST
Temp
°C
App
Temp
°C
Dew
Point
°C
Rel
Hum
%
Delta-T
°C
Wind Press
QNH
hPa
Press
MSL
hPa
Rain since
9am
mm
Dir  Spd
km/h
Gust
km/h
Spd
kts
Gust
kts
27/11:30pm 8.1 5.9 6.2 88 0.9 SSW 7 11 4 6 1012.8 1013.0 1.2
27/11:00pm 8.4 5.8 6.2 86 1.0 S 9 17 5 9 1013.4 1013.5 0.6
27/10:30pm 9.1 5.6 5.5 78 1.6 E 13 19 7 10 1013.3 1013.4 0.4
27/10:00pm 8.1 5.4 5.6 84 1.1 E 9 13 5 7 1013.7 1013.8 0.0
27/09:30pm 7.3 5.1 5.4 88 0.8 ENE 6 11 3 6 1014.6 1014.7 0.0
27/09:00pm 6.7 3.9 5.2 90 0.7 ENE 9 13 5 7 1015.4 1015.5 0.0
27/08:30pm 6.5 4.0 5.0 90 0.7 SSE 7 9 4 5 1015.6 1015.7 0.0
27/08:00pm 5.8 3.3 3.8 87 0.8 NNE 6 11 3 6 1015.8 1015.9 0.0
27/07:30pm 7.5 5.1 5.1 85 1.1 ENE 7 11 4 6 1015.4 1015.5 0.0
27/07:00pm 6.7 4.1 4.2 84 1.1 NNE 7 9 4 5 1015.7 1015.8 0.0
27/06:30pm 8.9 6.0 4.9 76 1.8 SSE 9 17 5 9 1016.1 1016.2 0.0
27/06:00pm 9.5 6.8 5.7 77 1.7 SSW 9 13 5 7 1016.2 1016.3 0.0
27/05:30pm 9.7 8.7 5.7 76 1.8 CALM 0 0 0 0 1015.9 1016.0 0.0
27/05:00pm 11.5 9.0 4.7 63 3.1 NE 7 9 4 5 1015.7 1015.8 0.0
27/04:30pm 12.2 9.0 5.1 62 3.3 ENE 11 15 6 8 1015.4 1015.5 0.0
27/04:00pm 11.8 9.2 6.3 69 2.6 ENE 9 13 5 7 1015.8 1015.9 0.0
27/03:30pm 11.6 9.5 6.7 72 2.3 E 7 11 4 6 1016.2 1016.3 0.0
27/03:00pm 11.8 9.9 6.7 71 2.4 E 6 7 3 4 1017.0 1017.1 0.0
27/02:30pm 11.9 9.3 6.2 68 2.7 E 9 11 5 6 1017.2 1017.3 0.0
27/02:00pm 11.6 9.4 6.3 70 2.5 E 7 11 4 6 1018.1 1018.2 0.0
27/01:30pm 12.3 10.8 7.0 70 2.6 NE 4 9 2 5 1018.8 1018.9 0.0
27/01:00pm 11.7 9.3 7.0 73 2.2 E 9 17 5 9 1019.2 1019.3 0.0
27/12:30pm 10.6 8.7 7.7 82 1.4 ENE 7 9 4 5 1020.3 1020.4 0.0
27/12:00pm 8.8 7.2 7.9 94 0.4 ESE 6 13 3 7 1021.2 1021.3 0.0
27/11:48am 8.0 6.0 7.2 95 0.4 SE 7 11 4 6 1021.6 1021.7 0.0
27/11:30am 7.5 5.5 6.9 96 0.3 E 7 9 4 5 1021.9 1022.0 0.0
27/11:00am 6.4 3.7 5.8 96 0.3 NE 9 11 5 6 1022.5 1022.6 0.0
27/10:39am 7.1 4.6 6.5 96 0.3 ENE 9 13 5 7 1022.4 1022.5 0.0
27/10:35am 6.7 4.1 6.1 96 0.3 ENE 9 13 5 7 1022.2 1022.3 0.0
27/10:30am 6.6 3.6 6.0 96 0.3 NE 11 13 6 7 1022.3 1022.4 0.0
27/10:17am 6.4 3.7 5.8 96 0.3 NNE 9 13 5 7 1022.7 1022.8 0.0
27/10:00am 6.2 4.1 5.6 96 0.3 NNE 6 9 3 5 1023.0 1023.1 0.0
27/09:30am 5.0 3.4 4.4 96 0.3 NE 2 7 1 4 1023.2 1023.3 0.0
27/09:00am 4.0 2.6 3.4 96 0.2 CALM 0 0 0 0 1023.6 1023.7 8.2
27/08:30am 3.9 1.3 3.3 96 0.2 E 6 7 3 4 1023.3 1023.4 8.2
27/08:00am 3.7 2.2 3.1 96 0.2 CALM 0 7 0 4 1023.4 1023.5 8.2
27/07:30am 3.6 1.3 3.0 96 0.2 ENE 4 9 2 5 1023.2 1023.3 8.2
27/07:00am 3.8 1.2 3.1 95 0.3 ENE 6 9 3 5 1022.7 1022.8 8.2
27/06:30am 4.0 2.6 3.3 95 0.3 CALM 0 0 0 0 1022.7 1022.8 8.2
27/06:00am 4.1 2.7 3.4 95 0.3 CALM 0 0 0 0 1022.5 1022.6 8.2
27/05:30am 3.7 2.2 3.0 95 0.3 CALM 0 0 0 0 1022.5 1022.6 8.0
27/05:00am 4.0 1.4 3.3 95 0.3 NE 6 7 3 4 1022.3 1022.4 8.0
27/04:30am 3.7 1.1 3.0 95 0.3 NNE 6 7 3 4 1022.4 1022.5 8.0
27/04:26am 3.5 0.6 2.8 95 0.3 NNE 7 9 4 5 1022.4 1022.5 8.0
27/04:09am 3.9 1.3 3.0 94 0.4 SSE 6 7 3 4 1022.3 1022.4 8.0
27/04:00am 5.2 2.7 4.5 95 0.3 SE 7 9 4 5 1022.3 1022.4 8.0
27/03:30am 5.9 3.4 5.0 94 0.4 SW 7 9 4 5 1022.4 1022.5 8.0
27/03:00am 6.1 3.7 5.2 94 0.4 WSW 7 9 4 5 1023.0 1023.1 8.0
27/02:30am 7.0 4.4 6.1 94 0.4 WNW 9 11 5 6 1023.3 1023.4 8.0
27/02:00am 7.1 4.1 6.2 94 0.4 WSW 11 15 6 8 1023.7 1023.8 8.0
27/01:30am 6.8 4.2 5.9 94 0.4 SW 9 9 5 5 1023.6 1023.7 8.0
27/01:00am 7.1 5.1 6.2 94 0.4 SW 6 9 3 5 1023.5 1023.6 8.0
27/12:30am 7.1 6.2 6.2 94 0.4 CALM 0 2 0 1 1023.5 1023.6 8.0
27/12:00am 7.4 5.3 6.5 94 0.4 SW 7 9 4 5 1023.4 1023.5 8.0
 
Date/Time
EST
Temp
°C
App
Temp
°C
Dew
Point
°C
Rel
Hum
%
Delta-T
°C
Wind Press
QNH
hPa
Press
MSL
hPa
Rain since
9am
mm
Dir  Spd
km/h
Gust
km/h
Spd
kts
Gust
kts
26/11:30pm 6.9 4.6 5.8 93 0.5 WNW 7 11 4 6 1023.5 1023.6 8.0
26/11:00pm 7.9 5.1 6.8 93 0.5 WNW 11 13 6 7 1023.5 1023.6 8.0
26/10:56pm 8.0 4.8 6.9 93 0.5 W 13 17 7 9 1023.5 1023.6 8.0
26/10:43pm 8.0 4.4 6.9 93 0.5 W 15 22 8 12 1023.6 1023.7 8.0
26/10:30pm 7.6 4.3 6.5 93 0.5 WNW 13 17 7 9 1023.4 1023.5 7.8

Other Formats:

Comma delimited format used in spreadsheet applications
http://www.bom.gov.au/fwo/IDV60801/IDV60801.94891.axf

JavaScript Object Notation format (JSON) in row-major order
http://www.bom.gov.au/fwo/IDV60801/IDV60801.94891.json